createdAt,value
2022-11-28T00:02:37.853Z,6.20
2022-11-28T00:05:25.475Z,6.88
2022-11-28T00:08:12.736Z,5.55
2022-11-28T00:11:00.097Z,4.97
2022-11-28T00:13:48.804Z,5.47
2022-11-28T00:16:36.123Z,5.53
2022-11-28T00:19:23.294Z,5.95
2022-11-28T00:22:10.530Z,5.95
2022-11-28T00:24:57.805Z,5.88
2022-11-28T00:27:45.211Z,5.88
2022-11-28T00:30:36.995Z,6.30
2022-11-28T00:33:24.397Z,6.03
2022-11-28T00:36:11.929Z,5.32
2022-11-28T00:38:59.330Z,5.90
2022-11-28T00:41:46.582Z,6.10
2022-11-28T00:44:33.930Z,5.68
2022-11-28T00:47:22.687Z,5.25
2022-11-28T00:50:10.486Z,5.10
2022-11-28T00:52:57.423Z,4.80
2022-11-28T00:55:45.031Z,6.25
2022-11-28T00:58:32.739Z,5.65
2022-11-28T01:01:20.925Z,6.00
2022-11-28T01:04:11.041Z,5.53
2022-11-28T01:06:58.320Z,5.68
2022-11-28T01:09:45.329Z,6.07
2022-11-28T01:12:32.502Z,5.50
2022-11-28T01:15:21.588Z,5.75
2022-11-28T01:18:10.923Z,6.75
2022-11-28T01:21:01.868Z,6.03
2022-11-28T01:23:53.285Z,6.85
2022-11-28T01:26:43.393Z,6.78
2022-11-28T01:29:32.819Z,7.05
2022-11-28T01:32:22.699Z,6.68
2022-11-28T01:35:12.865Z,6.47
2022-11-28T01:38:03.701Z,6.50
2022-11-28T01:40:53.839Z,7.57
2022-11-28T01:43:56.608Z,6.40
2022-11-28T01:46:46.439Z,6.63
2022-11-28T01:49:38.312Z,6.30
2022-11-28T01:52:28.381Z,7.53
2022-11-28T01:55:21.111Z,7.75
2022-11-28T01:58:08.257Z,7.05
2022-11-28T02:00:56.233Z,8.25
2022-11-28T02:03:45.936Z,7.63
2022-11-28T02:06:36.183Z,7.80
2022-11-28T02:09:25.775Z,6.88
2022-11-28T02:12:20.787Z,7.20
2022-11-28T02:15:18.119Z,7.72
2022-11-28T02:18:14.063Z,7.15
2022-11-28T02:21:09.630Z,7.32
2022-11-28T02:24:21.271Z,7.45
2022-11-28T02:27:18.428Z,7.05
2022-11-28T02:30:19.470Z,7.15
2022-11-28T02:33:13.190Z,7.43
2022-11-28T02:36:06.267Z,6.35
2022-11-28T02:38:57.268Z,6.97
2022-11-28T02:41:46.448Z,6.90
2022-11-28T02:44:36.532Z,6.90
2022-11-28T02:47:27.040Z,7.75
2022-11-28T02:50:19.436Z,7.30
2022-11-28T02:53:08.628Z,7.05
2022-11-28T02:55:56.459Z,7.13
2022-11-28T02:58:43.376Z,7.45
2022-11-28T03:01:32.423Z,7.75
2022-11-28T03:04:25.146Z,7.05
2022-11-28T03:07:20.058Z,5.40
2022-11-28T03:10:11.803Z,7.45
2022-11-28T03:13:06.392Z,6.82
2022-11-28T03:15:56.925Z,5.18
2022-11-28T03:18:47.303Z,6.65
2022-11-28T03:21:40.103Z,6.88
2022-11-28T03:24:31.823Z,7.50
2022-11-28T03:27:20.179Z,6.65
2022-11-28T03:30:09.759Z,6.28
2022-11-28T03:32:57.678Z,7.22
2022-11-28T03:35:47.983Z,6.22
2022-11-28T03:38:37.570Z,7.20
2022-11-28T03:41:29.442Z,7.13
2022-11-28T03:44:18.591Z,6.28
2022-11-28T03:47:06.468Z,7.72
2022-11-28T03:49:55.939Z,7.30
2022-11-28T03:52:46.151Z,6.78
2022-11-28T03:55:36.532Z,6.72
2022-11-28T03:58:28.375Z,7.35
2022-11-28T04:01:19.354Z,7.03
2022-11-28T04:04:11.392Z,7.35
2022-11-28T04:07:00.332Z,7.13
2022-11-28T04:09:50.371Z,8.23
2022-11-28T04:12:41.238Z,8.30
2022-11-28T04:15:33.544Z,7.53
2022-11-28T04:18:22.191Z,7.82
2022-11-28T04:21:12.160Z,7.32
2022-11-28T04:24:01.728Z,8.23
2022-11-28T04:26:50.195Z,7.60
2022-11-28T04:29:40.120Z,8.35
2022-11-28T04:32:30.779Z,8.38
2022-11-28T04:35:20.213Z,7.25
2022-11-28T04:38:08.535Z,7.30
2022-11-28T04:40:58.277Z,8.10
2022-11-28T04:43:47.600Z,6.88
2022-11-28T04:46:38.906Z,7.72
2022-11-28T04:49:28.285Z,7.28
2022-11-28T04:52:17.453Z,7.65
2022-11-28T04:55:09.515Z,7.13
2022-11-28T04:58:00.026Z,7.53
2022-11-28T05:00:48.314Z,7.07
2022-11-28T05:03:39.915Z,7.00
2022-11-28T05:06:32.090Z,7.03
2022-11-28T05:09:19.021Z,7.10
2022-11-28T05:12:06.579Z,7.75
2022-11-28T05:14:53.574Z,7.10
2022-11-28T05:17:42.577Z,5.57
2022-11-28T05:20:30.435Z,7.32
2022-11-28T05:23:19.102Z,7.40
2022-11-28T05:26:07.255Z,7.45
2022-11-28T05:28:54.822Z,8.20
2022-11-28T05:31:41.907Z,7.80
2022-11-28T05:34:30.205Z,8.30
2022-11-28T05:37:17.515Z,8.02
2022-11-28T05:40:07.015Z,8.63
2022-11-28T05:42:54.409Z,8.00
2022-11-28T05:45:41.930Z,6.95
2022-11-28T05:48:29.247Z,7.18
2022-11-28T05:51:16.605Z,8.43
2022-11-28T05:54:04.097Z,8.43
2022-11-28T05:56:52.699Z,7.82
2022-11-28T05:59:40.251Z,7.38
2022-11-28T06:02:27.506Z,8.00
2022-11-28T06:05:40.289Z,8.85
2022-11-28T06:08:21.826Z,8.00
2022-11-28T06:11:09.674Z,7.50
2022-11-28T06:13:58.375Z,7.95
2022-11-28T06:16:45.754Z,7.75
2022-11-28T06:19:32.892Z,7.65
2022-11-28T06:22:20.233Z,7.63
2022-11-28T06:25:07.606Z,8.50
2022-11-28T06:27:54.884Z,7.65
2022-11-28T06:30:45.747Z,7.80
2022-11-28T06:33:32.721Z,7.38
2022-11-28T06:36:20.476Z,7.72
2022-11-28T06:39:07.732Z,7.70
2022-11-28T06:41:55.007Z,8.30
2022-11-28T06:44:42.352Z,8.00
2022-11-28T06:47:30.876Z,6.15
2022-11-28T06:50:18.184Z,7.70
2022-11-28T06:53:05.392Z,7.70
2022-11-28T06:55:52.775Z,8.02
2022-11-28T06:58:40.050Z,8.50
2022-11-28T07:01:29.012Z,7.43
2022-11-28T07:04:17.645Z,7.75
2022-11-28T07:07:05.074Z,7.95
2022-11-28T07:09:52.532Z,7.85
2022-11-28T07:12:39.939Z,9.02
2022-11-28T07:15:27.860Z,7.55
2022-11-28T07:18:14.911Z,8.82
2022-11-28T07:21:03.638Z,7.70
2022-11-28T07:23:51.006Z,6.90
2022-11-28T07:26:38.174Z,8.02
2022-11-28T07:29:30.759Z,8.25
2022-11-28T07:32:17.774Z,8.10
2022-11-28T07:35:07.769Z,7.22
2022-11-28T07:37:56.911Z,7.60
2022-11-28T07:40:43.915Z,7.90
2022-11-28T07:43:31.145Z,8.07
2022-11-28T07:46:19.644Z,8.18
2022-11-28T07:49:06.818Z,7.43
2022-11-28T07:51:54.087Z,7.28
2022-11-28T07:54:42.683Z,8.00
2022-11-28T07:57:30.667Z,7.90
2022-11-28T08:00:18.677Z,8.95
2022-11-28T08:03:05.853Z,10.50
2022-11-28T08:05:53.226Z,8.10
2022-11-28T08:08:40.600Z,9.05
2022-11-28T08:11:30.246Z,8.10
2022-11-28T08:14:17.395Z,8.85
2022-11-28T08:17:04.775Z,8.13
2022-11-28T08:19:51.882Z,7.63
2022-11-28T08:22:38.951Z,8.88
2022-11-28T08:25:26.364Z,8.88
2022-11-28T08:28:15.169Z,8.50
2022-11-28T08:31:09.319Z,8.43
2022-11-28T08:33:57.839Z,8.25
2022-11-28T08:36:44.776Z,8.43
2022-11-28T08:39:32.623Z,7.30
2022-11-28T08:42:20.103Z,8.15
2022-11-28T08:45:09.440Z,7.60
2022-11-28T08:47:56.849Z,8.55
2022-11-28T08:50:48.234Z,8.70
2022-11-28T08:53:35.779Z,7.95
2022-11-28T08:56:23.243Z,8.20
2022-11-28T08:59:10.716Z,8.30
2022-11-28T09:01:59.071Z,8.05
2022-11-28T09:04:46.313Z,8.77
2022-11-28T09:07:33.696Z,9.05
2022-11-28T09:10:20.743Z,8.63
2022-11-28T09:13:08.588Z,8.90
2022-11-28T09:15:55.875Z,8.30
2022-11-28T09:18:44.790Z,8.30
2022-11-28T09:21:32.123Z,8.65
2022-11-28T09:24:19.330Z,8.30
2022-11-28T09:27:06.688Z,8.68
2022-11-28T09:29:53.892Z,8.10
2022-11-28T09:32:41.209Z,8.25
2022-11-28T09:35:29.898Z,7.60
2022-11-28T09:38:17.227Z,8.43
2022-11-28T09:41:05.156Z,7.38
2022-11-28T09:43:54.986Z,8.30
2022-11-28T09:46:43.043Z,9.27
2022-11-28T09:49:38.471Z,8.68
2022-11-28T09:52:30.656Z,9.13
2022-11-28T09:55:20.196Z,8.50
2022-11-28T09:58:11.552Z,8.68
2022-11-28T10:01:03.407Z,8.45
2022-11-28T10:03:53.158Z,8.93
2022-11-28T10:06:43.725Z,7.38
2022-11-28T10:09:38.471Z,7.55
2022-11-28T10:12:33.381Z,8.25
2022-11-28T10:15:23.891Z,8.05
2022-11-28T10:18:16.484Z,7.57
2022-11-28T10:21:05.331Z,8.07
2022-11-28T10:23:54.260Z,7.95
2022-11-28T10:26:43.980Z,8.13
2022-11-28T10:29:34.144Z,8.10
2022-11-28T10:32:22.824Z,8.00
2022-11-28T10:35:17.953Z,8.35
2022-11-28T10:38:07.874Z,8.93
2022-11-28T10:40:59.241Z,8.90
2022-11-28T10:43:49.931Z,8.40
2022-11-28T10:46:44.516Z,9.20
2022-11-28T10:49:37.049Z,9.18
2022-11-28T10:52:27.687Z,8.27
2022-11-28T10:55:27.310Z,8.43
2022-11-28T10:58:19.781Z,8.90
2022-11-28T11:01:08.315Z,8.55
2022-11-28T11:03:55.527Z,8.85
2022-11-28T11:07:06.863Z,8.77
2022-11-28T11:09:49.883Z,8.85
2022-11-28T11:12:37.219Z,9.20
2022-11-28T11:15:26.124Z,9.63
2022-11-28T11:18:23.563Z,8.95
2022-11-28T11:21:15.472Z,9.20
2022-11-28T11:24:12.578Z,10.48
2022-11-28T11:27:07.615Z,9.40
2022-11-28T11:29:55.339Z,10.15
2022-11-28T11:32:42.365Z,10.50
2022-11-28T11:35:33.020Z,10.63
2022-11-28T11:38:30.321Z,9.68
2022-11-28T11:41:25.841Z,10.35
2022-11-28T11:44:29.222Z,9.20
2022-11-28T11:47:16.226Z,10.18
2022-11-28T11:50:05.594Z,9.38
2022-11-28T11:53:03.599Z,10.13
2022-11-28T11:55:52.799Z,8.50
2022-11-28T11:58:42.598Z,9.52
2022-11-28T12:01:31.785Z,9.70
2022-11-28T12:04:44.517Z,9.85
2022-11-28T12:07:33.253Z,9.27
2022-11-28T12:10:23.686Z,8.60
2022-11-28T12:13:15.026Z,9.25
2022-11-28T12:16:06.831Z,10.70
2022-11-28T12:19:00.843Z,9.70
2022-11-28T12:22:01.716Z,10.32
2022-11-28T12:24:54.196Z,8.82
2022-11-28T12:27:49.732Z,9.88
2022-11-28T12:30:46.634Z,10.15
2022-11-28T12:33:40.356Z,9.80
2022-11-28T12:36:30.234Z,9.10
2022-11-28T12:39:18.968Z,9.20
2022-11-28T12:42:20.480Z,8.77
2022-11-28T12:45:20.532Z,8.52
2022-11-28T12:48:18.429Z,8.50
2022-11-28T12:51:12.539Z,8.50
2022-11-28T12:54:06.170Z,8.10
2022-11-28T12:56:56.035Z,8.77
2022-11-28T12:59:47.806Z,8.45
2022-11-28T13:02:40.374Z,8.82
2022-11-28T13:05:35.158Z,8.15
2022-11-28T13:08:31.351Z,8.40
2022-11-28T13:11:25.576Z,8.75
2022-11-28T13:14:17.367Z,8.93
2022-11-28T13:17:10.103Z,8.15
2022-11-28T13:20:03.018Z,6.85
2022-11-28T13:22:54.695Z,8.02
2022-11-28T13:25:45.771Z,8.20
2022-11-28T13:28:35.899Z,8.50
2022-11-28T13:31:25.381Z,8.95
2022-11-28T13:34:14.256Z,8.23
2022-11-28T13:40:18.391Z,7.90
2022-11-28T13:43:08.581Z,8.63
2022-11-28T13:45:56.819Z,8.35
2022-11-28T13:49:15.572Z,7.97
2022-11-28T13:52:24.017Z,8.35
2022-11-28T13:55:26.084Z,7.50
2022-11-28T13:58:18.684Z,7.40
2022-11-28T14:01:08.048Z,7.20
2022-11-28T14:04:05.672Z,8.38
2022-11-28T14:06:54.627Z,7.65
2022-11-28T14:09:47.862Z,7.63
2022-11-28T14:12:39.277Z,7.87
2022-11-28T14:15:30.995Z,6.80
2022-11-28T14:18:55.124Z,7.85
2022-11-28T14:21:35.476Z,6.57
2022-11-28T14:24:27.736Z,7.22
2022-11-28T14:27:19.379Z,6.53
2022-11-28T14:30:07.023Z,6.68
2022-11-28T14:32:58.300Z,6.85
2022-11-28T14:36:03.486Z,6.35
2022-11-28T14:39:01.967Z,5.88
2022-11-28T14:42:08.139Z,5.82
2022-11-28T14:44:56.985Z,5.90
2022-11-28T14:48:05.865Z,5.35
2022-11-28T14:51:00.979Z,4.75
2022-11-28T14:53:50.207Z,5.13
2022-11-28T14:56:37.431Z,5.30
2022-11-28T14:59:28.192Z,4.93
2022-11-28T15:02:22.739Z,5.18
2022-11-28T15:05:20.840Z,4.85
2022-11-28T15:08:23.892Z,5.18
2022-11-28T15:11:17.520Z,4.70
2022-11-28T15:14:15.387Z,4.72
2022-11-28T15:17:04.437Z,5.07
2022-11-28T15:19:52.494Z,4.97
2022-11-28T15:22:41.073Z,5.20
2022-11-28T15:25:35.716Z,5.47
2022-11-28T15:28:25.458Z,5.60
2022-11-28T15:31:21.563Z,6.18
2022-11-28T15:34:09.739Z,6.03
2022-11-28T15:36:58.294Z,5.97
2022-11-28T15:39:47.251Z,5.78
2022-11-28T15:42:37.984Z,6.35
2022-11-28T15:45:26.875Z,6.35
2022-11-28T15:48:26.864Z,7.10
2022-11-28T15:51:29.952Z,7.45
2022-11-28T15:54:26.867Z,8.23
2022-11-28T15:57:19.586Z,7.18
2022-11-28T16:00:13.464Z,8.25
2022-11-28T16:03:01.802Z,9.13
2022-11-28T16:05:50.022Z,9.63
2022-11-28T16:08:38.013Z,10.73
2022-11-28T16:11:26.579Z,12.07
2022-11-28T16:14:17.516Z,10.57
2022-11-28T16:17:10.542Z,10.18
2022-11-28T16:19:58.071Z,10.05
2022-11-28T16:22:45.378Z,9.05
2022-11-28T16:25:32.661Z,10.13
2022-11-28T16:28:33.919Z,9.85
2022-11-28T16:31:23.803Z,8.77
2022-11-28T16:34:15.305Z,10.73
2022-11-28T16:37:02.715Z,8.55
2022-11-28T16:39:59.659Z,10.43
2022-11-28T16:42:53.383Z,9.35
2022-11-28T16:45:40.743Z,9.95
2022-11-28T16:48:29.758Z,9.18
2022-11-28T16:51:37.941Z,10.23
2022-11-28T16:54:30.135Z,11.15
2022-11-28T16:57:17.303Z,10.95
2022-11-28T17:00:04.824Z,10.32
2022-11-28T17:02:52.903Z,12.38
2022-11-28T17:05:40.451Z,12.82
2022-11-28T17:08:30.521Z,11.35
2022-11-28T17:11:19.290Z,13.38
2022-11-28T17:14:13.039Z,11.57
2022-11-28T17:17:03.570Z,10.82
2022-11-28T17:19:50.788Z,12.75
2022-11-28T17:22:41.272Z,11.73
2022-11-28T17:25:30.312Z,13.25
2022-11-28T17:28:21.643Z,11.70
2022-11-28T17:31:11.288Z,11.38
2022-11-28T17:33:58.434Z,11.85
2022-11-28T17:36:45.650Z,11.55
2022-11-28T17:39:32.905Z,12.80
2022-11-28T17:42:21.689Z,12.68
2022-11-28T17:45:12.743Z,12.30
2022-11-28T17:47:59.768Z,13.23
2022-11-28T17:50:47.987Z,11.75
2022-11-28T17:53:35.002Z,12.32
2022-11-28T17:56:22.327Z,12.32
2022-11-28T17:59:12.535Z,11.95
2022-11-28T18:02:00.004Z,12.05
2022-11-28T18:04:47.439Z,11.95
2022-11-28T18:07:34.564Z,12.13
2022-11-28T18:10:21.622Z,11.52
2022-11-28T18:13:09.563Z,11.45
2022-11-28T18:15:58.256Z,13.75
2022-11-28T18:18:45.703Z,13.00
2022-11-28T18:21:33.272Z,12.93
2022-11-28T18:24:20.731Z,11.80
2022-11-28T18:27:08.111Z,12.70
2022-11-28T18:29:55.302Z,12.00
2022-11-28T18:32:44.604Z,13.52
2022-11-28T18:35:31.779Z,13.35
2022-11-28T18:38:19.295Z,14.18
2022-11-28T18:41:07.315Z,13.95
2022-11-28T18:43:55.807Z,14.70
2022-11-28T18:46:42.727Z,15.00
2022-11-28T18:49:31.298Z,15.02
2022-11-28T18:52:18.631Z,14.48
2022-11-28T18:55:06.144Z,15.57
2022-11-28T18:57:53.227Z,16.02
2022-11-28T19:00:40.358Z,14.70
2022-11-28T19:03:27.669Z,15.10
2022-11-28T19:06:16.308Z,14.50
2022-11-28T19:09:04.916Z,13.48
2022-11-28T19:11:52.033Z,13.70
2022-11-28T19:14:39.522Z,14.57
2022-11-28T19:17:26.847Z,12.35
2022-11-28T19:20:14.217Z,13.77
2022-11-28T19:23:03.017Z,13.57
2022-11-28T19:25:50.044Z,12.57
2022-11-28T19:28:38.291Z,13.13
2022-11-28T19:31:27.382Z,11.75
2022-11-28T19:34:15.094Z,12.75
2022-11-28T19:37:01.912Z,12.73
2022-11-28T19:39:50.797Z,12.98
2022-11-28T19:42:38.228Z,12.70
2022-11-28T19:45:25.402Z,12.25
2022-11-28T19:48:12.685Z,13.15
2022-11-28T19:51:00.307Z,14.98
2022-11-28T19:53:47.896Z,13.45
2022-11-28T19:56:36.139Z,13.82
2022-11-28T19:59:23.427Z,14.48
2022-11-28T20:02:11.014Z,15.00
2022-11-28T20:04:57.887Z,15.38
2022-11-28T20:07:45.301Z,16.63
2022-11-28T20:10:32.527Z,17.20
2022-11-28T20:13:21.141Z,17.42
2022-11-28T20:16:09.952Z,15.27
2022-11-28T20:18:57.191Z,14.80
2022-11-28T20:21:44.547Z,15.73
2022-11-28T20:24:31.895Z,15.63
2022-11-28T20:27:19.034Z,15.48
2022-11-28T20:30:08.897Z,17.00
2022-11-28T20:32:56.081Z,15.73
2022-11-28T20:35:43.190Z,15.90
2022-11-28T20:38:30.401Z,17.65
2022-11-28T20:41:18.878Z,14.57
2022-11-28T20:44:06.402Z,15.10
2022-11-28T20:46:54.997Z,15.20
2022-11-28T20:49:42.567Z,16.42
2022-11-28T20:52:30.118Z,15.30
2022-11-28T20:55:17.563Z,15.80
2022-11-28T20:58:04.817Z,16.08
2022-11-28T21:00:52.103Z,14.85
2022-11-28T21:03:40.619Z,15.80
2022-11-28T21:06:27.927Z,14.88
2022-11-28T21:09:15.828Z,16.58
2022-11-28T21:12:03.347Z,16.50
2022-11-28T21:14:52.003Z,15.25
2022-11-28T21:17:39.452Z,15.32
2022-11-28T21:20:28.135Z,14.60
2022-11-28T21:23:16.745Z,13.90
2022-11-28T21:26:07.464Z,14.40
2022-11-28T21:28:55.736Z,15.20
2022-11-28T21:31:44.398Z,15.20
2022-11-28T21:34:31.723Z,14.70
2022-11-28T21:37:20.394Z,15.40
2022-11-28T21:40:08.482Z,14.35
2022-11-28T21:42:55.475Z,14.05
2022-11-28T21:45:42.734Z,14.65
2022-11-28T21:48:30.247Z,14.35
2022-11-28T21:51:18.366Z,14.25
2022-11-28T21:54:07.062Z,14.05
2022-11-28T21:56:54.076Z,13.93
2022-11-28T21:59:41.464Z,15.27
2022-11-28T22:02:30.908Z,15.30
2022-11-28T22:05:18.583Z,15.07
2022-11-28T22:08:05.883Z,15.07
2022-11-28T22:10:54.703Z,15.77
2022-11-28T22:13:42.535Z,16.67
2022-11-28T22:16:30.409Z,16.05
2022-11-28T22:19:17.769Z,17.05
2022-11-28T22:22:05.130Z,17.98
2022-11-28T22:24:52.513Z,16.20
2022-11-28T22:27:41.104Z,16.98
2022-11-28T22:30:28.438Z,14.65
2022-11-28T22:33:15.683Z,16.20
2022-11-28T22:36:06.895Z,15.00
2022-11-28T22:38:55.611Z,15.15
2022-11-28T22:41:42.843Z,13.88
2022-11-28T22:44:31.490Z,14.07
2022-11-28T22:47:18.846Z,15.40
2022-11-28T22:50:06.779Z,15.75
2022-11-28T22:52:54.251Z,16.60
2022-11-28T22:55:41.654Z,13.60
2022-11-28T22:58:29.028Z,14.57
2022-11-28T23:01:18.350Z,14.77
2022-11-28T23:04:05.289Z,14.65
2022-11-28T23:06:52.651Z,14.85
2022-11-28T23:09:40.201Z,14.10
2022-11-28T23:12:27.100Z,15.18
2022-11-28T23:15:14.358Z,13.80
2022-11-28T23:18:02.994Z,15.05
2022-11-28T23:20:50.195Z,16.98
2022-11-28T23:23:37.722Z,16.50
2022-11-28T23:26:26.279Z,16.83
2022-11-28T23:29:13.344Z,16.58
2022-11-28T23:32:00.617Z,16.63
2022-11-28T23:34:49.051Z,17.63
2022-11-28T23:37:38.120Z,19.55
2022-11-28T23:40:25.270Z,18.73
2022-11-28T23:43:12.464Z,18.55
2022-11-28T23:45:59.861Z,18.75
2022-11-28T23:48:47.226Z,21.55
2022-11-28T23:51:35.625Z,19.20
2022-11-28T23:54:22.934Z,19.83
2022-11-28T23:57:10.241Z,18.08
2022-11-28T23:59:57.459Z,20.00
